This is the latest recevied weather packets stored in our database for station/object KD4UFD. If no packets are shown the sender has not sent any weather packets the latest 1 day(s).
| Time | Temp. | Humidity | Pressure | Rain* | Wind** | Luminosity | Snow |
|---|---|---|---|---|---|---|---|
| 1836274577 | 19.44° C | 97% | 1018.4 hPa | 1.78 mm | 0 m/s | 0 W/m² | - |
| 1836274431 | 19.44° C | 97% | 1018.2 hPa | 0 mm | 0 m/s | 0 W/m² | - |
| 1836274275 | 19.44° C | 97% | 1018.4 hPa | 0 mm | 0 m/s | 0 W/m² | - |
| 1836274129 | 19.44° C | 97% | 1018.3 hPa | 1.78 mm | 0 m/s | 0 W/m² | - |
| 1836273975 | 19.44° C | 97% | 1018.3 hPa | 0 mm | 0 m/s | 0 W/m² | - |
| 1778044212 | 19.44° C | 61% | 1010.7 hPa | 0 mm | 0 m/s | 0 W/m² | - |
| 1778043910 | 19.44° C | 62% | 1010.8 hPa | 0 mm | 0 m/s | 0 W/m² | - |
| 1778043607 | 19.44° C | 63% | 1010.9 hPa | 0 mm | 0 m/s | 0 W/m² | - |
| 1778043303 | 19.44° C | 63% | 1010.8 hPa | 0 mm | 0.45 m/s, 237° | 0 W/m² | - |
| 1778042999 | 19.44° C | 63% | 1010.5 hPa | 0 mm | 0 m/s | 0 W/m² | - |
| 1778042698 | 19.44° C | 66% | 1010.8 hPa | 0 mm | 0 m/s | 0 W/m² | - |
| 1778042394 | 19.44° C | 66% | 1010.8 hPa | 0 mm | 0 m/s | 0 W/m² | - |
| 1778042091 | 20° C | 66% | 1010.5 hPa | 0 mm | 0 m/s | 0 W/m² | - |
| 1778041789 | 20° C | 62% | 1010.8 hPa | 0 mm | 0 m/s | 0 W/m² | - |
| 1778041489 | 20° C | 61% | 1010.8 hPa | 0 mm | 0 m/s | 0 W/m² | - |
| 1778041186 | 20° C | 60% | 1011.1 hPa | 0 mm | 0 m/s | 0 W/m² | - |
| 1778040884 | 20° C | 59% | 1010.9 hPa | 0 mm | 0 m/s | 0 W/m² | - |
| 1778040581 | 20° C | 59% | 1010.9 hPa | 0 mm | 0 m/s | 0 W/m² | - |
| 1778040278 | 20° C | 60% | 1011.1 hPa | 0 mm | 0 m/s | 0 W/m² | - |
| 1778039974 | 20° C | 61% | 1010.8 hPa | 0 mm | 0 m/s | 0 W/m² | - |
| 1778039672 | 20° C | 62% | 1010.8 hPa | 0 mm | 0 m/s | 0 W/m² | - |
| 1778039368 | 20.56° C | 60% | 1010.9 hPa | 0 mm | 0 m/s | 0 W/m² | - |
| 1778039066 | 20.56° C | 58% | 1010.9 hPa | 0 mm | 0 m/s | 0 W/m² | - |
| 1778038763 | 21.11° C | 55% | 1011 hPa | 0 mm | 0.89 m/s, 223° | 0 W/m² | - |
| 1778038460 | 21.67° C | 52% | 1011.2 hPa | 0 mm | 1.79 m/s, 219° | 0 W/m² | - |
* Rain latest hour (hover to see other rain measurements)
** Current wind speed in m/s (hover to see current wind gust speed)